Time;durP1;ratioP1;P1;durP2;ratioP2;P2;SDS_P1;SDS_P2;PMS_P1;PMS_P2;Temp;Humidity;BMP_temperature;BMP_pressure;BME280_temperature;BME280_humidity;BME280_pressure;Samples;Min_cycle;Max_cycle;Signal;HPM_P1;HPM_P2
2024/04/22 00:01:52;;;;;;;10.43;5.50;;;;;;;;;;5384082;26;85684;-50
2024/04/22 00:04:17;;;;;;;11.63;5.67;;;;;;;;;;5372323;26;85161;-53
2024/04/22 00:06:45;;;;;;;15.53;6.53;;;;;;;;;;5377144;26;86567;-52
2024/04/22 00:09:13;;;;;;;12.00;5.97;;;;;;;;;;5377838;26;86052;-52
2024/04/22 00:11:39;;;;;;;6.80;4.90;;;;;;;;;;5377798;26;85870;-51
2024/04/22 00:14:04;;;;;;;11.20;5.03;;;;;;;;;;5377111;26;85328;-51
2024/04/22 00:16:30;;;;;;;8.57;5.90;;;;;;;;;;5379301;26;84955;-51
2024/04/22 00:18:55;;;;;;;10.30;4.87;;;;;;;;;;5371046;26;85319;-53
2024/04/22 00:21:20;;;;;;;8.40;5.20;;;;;;;;;;5374749;26;85737;-53
2024/04/22 00:23:45;;;;;;;13.73;5.70;;;;;;;;;;5380554;26;86707;-50
2024/04/22 00:26:10;;;;;;;16.67;5.23;;;;;;;;;;5380095;26;85956;-53
2024/04/22 00:28:36;;;;;;;14.23;5.93;;;;;;;;;;5373708;26;85194;-52
2024/04/22 00:31:02;;;;;;;8.82;4.57;;;;;;;;;;5383175;26;85544;-52
2024/04/22 00:33:27;;;;;;;11.27;5.57;;;;;;;;;;5388505;26;85885;-49
2024/04/22 00:35:56;;;;;;;11.00;5.43;;;;;;;;;;5373478;26;85784;-51
2024/04/22 00:38:21;;;;;;;7.25;4.28;;;;;;;;;;5369141;26;85875;-52
2024/04/22 00:40:46;;;;;;;7.93;4.50;;;;;;;;;;5387421;26;85709;-50
2024/04/22 00:43:12;;;;;;;10.30;5.13;;;;;;;;;;5388123;26;85592;-50
2024/04/22 00:45:37;;;;;;;8.10;4.13;;;;;;;;;;5374993;26;87671;-48
2024/04/22 00:48:02;;;;;;;8.27;4.47;;;;;;;;;;5376541;26;86358;-50
2024/04/22 00:50:29;;;;;;;8.17;4.57;;;;;;;;;;5375690;26;85806;-51
2024/04/22 00:52:54;;;;;;;9.30;4.43;;;;;;;;;;5374361;26;87141;-54
2024/04/22 00:55:19;;;;;;;8.93;4.57;;;;;;;;;;5435400;25;85236;-52
2024/04/22 00:57:44;;;;;;;10.73;5.03;;;;;;;;;;5422747;25;86638;-51
2024/04/22 01:00:11;;;;;;;8.20;4.60;;;;;;;;;;5373371;26;86651;-47
2024/04/22 01:02:36;;;;;;;6.77;3.53;;;;;;;;;;5376171;26;85131;-49
2024/04/22 01:05:02;;;;;;;5.70;4.37;;;;;;;;;;5375630;26;87126;-48
2024/04/22 01:07:27;;;;;;;5.53;4.37;;;;;;;;;;5375301;26;85556;-48
2024/04/22 01:09:52;;;;;;;10.43;5.00;;;;;;;;;;5371109;26;86940;-51
2024/04/22 01:12:18;;;;;;;11.17;4.43;;;;;;;;;;5380727;25;89247;-49
2024/04/22 01:14:43;;;;;;;6.73;4.13;;;;;;;;;;5383464;26;85320;-52
2024/04/22 01:17:08;;;;;;;8.40;4.73;;;;;;;;;;5385971;26;86448;-49
2024/04/22 01:19:33;;;;;;;6.33;4.30;;;;;;;;;;5375410;26;85132;-50
2024/04/22 01:21:58;;;;;;;10.00;4.77;;;;;;;;;;5386061;26;85729;-52
2024/04/22 01:24:24;;;;;;;9.07;4.27;;;;;;;;;;5386245;26;85688;-52
2024/04/22 01:26:50;;;;;;;10.00;4.10;;;;;;;;;;5380616;26;85611;-49
2024/04/22 01:29:15;;;;;;;8.20;3.77;;;;;;;;;;5382914;26;85509;-47
2024/04/22 01:31:40;;;;;;;6.57;3.67;;;;;;;;;;5379635;26;86926;-50
2024/04/22 01:34:06;;;;;;;10.10;4.63;;;;;;;;;;5381113;26;85459;-52
2024/04/22 01:36:31;;;;;;;8.33;4.50;;;;;;;;;;5382912;26;86033;-53
2024/04/22 01:38:57;;;;;;;4.13;3.73;;;;;;;;;;5381636;26;85628;-49
2024/04/22 01:41:22;;;;;;;7.40;4.33;;;;;;;;;;5368169;26;85638;-49
2024/04/22 01:43:47;;;;;;;5.03;3.67;;;;;;;;;;5373160;26;86303;-52
2024/04/22 01:46:12;;;;;;;6.00;4.50;;;;;;;;;;5381393;26;86874;-51
2024/04/22 01:48:38;;;;;;;5.00;3.67;;;;;;;;;;5378749;26;85490;-51
2024/04/22 01:51:03;;;;;;;10.23;3.57;;;;;;;;;;5381221;26;85095;-53
2024/04/22 01:53:28;;;;;;;5.63;3.57;;;;;;;;;;5383292;26;84612;-52
2024/04/22 01:56:02;;;;;;;7.57;4.40;;;;;;;;;;5384868;26;85272;-52
2024/04/22 01:58:28;;;;;;;8.23;3.70;;;;;;;;;;5381647;26;85239;-51
2024/04/22 02:00:53;;;;;;;7.77;3.97;;;;;;;;;;5384614;25;88016;-47
2024/04/22 02:03:18;;;;;;;7.37;4.13;;;;;;;;;;5383415;26;85449;-51
2024/04/22 02:05:43;;;;;;;7.23;4.23;;;;;;;;;;5381509;26;85639;-53
2024/04/22 02:08:08;;;;;;;9.13;3.93;;;;;;;;;;5388442;26;87046;-50
2024/04/22 02:10:34;;;;;;;6.50;3.63;;;;;;;;;;5376215;26;85177;-52
2024/04/22 02:13:02;;;;;;;7.40;3.27;;;;;;;;;;5373913;26;85279;-50
2024/04/22 02:15:28;;;;;;;6.13;3.10;;;;;;;;;;5380242;26;89066;-53
2024/04/22 02:17:53;;;;;;;7.72;3.72;;;;;;;;;;5380295;26;84672;-51
2024/04/22 02:20:18;;;;;;;7.17;3.40;;;;;;;;;;5376984;26;85658;-51
2024/04/22 02:22:44;;;;;;;4.80;3.17;;;;;;;;;;5378290;26;86117;-50
2024/04/22 02:25:09;;;;;;;6.03;4.20;;;;;;;;;;5390684;26;86540;-50
2024/04/22 02:27:34;;;;;;;5.43;2.53;;;;;;;;;;5377947;26;85561;-53
2024/04/22 02:29:59;;;;;;;4.87;2.63;;;;;;;;;;5383993;26;85185;-51
2024/04/22 02:32:26;;;;;;;4.83;3.07;;;;;;;;;;5368991;26;85607;-53
2024/04/22 02:34:52;;;;;;;3.03;2.70;;;;;;;;;;5379243;26;86312;-51
2024/04/22 02:37:17;;;;;;;9.07;3.77;;;;;;;;;;5372291;26;85582;-50
2024/04/22 02:39:42;;;;;;;6.30;2.87;;;;;;;;;;5386435;26;85363;-51
2024/04/22 02:42:07;;;;;;;7.33;2.67;;;;;;;;;;5379721;26;85500;-49
2024/04/22 02:44:33;;;;;;;8.68;3.97;;;;;;;;;;5386916;26;85344;-54
2024/04/22 02:46:58;;;;;;;7.53;3.43;;;;;;;;;;5378291;26;85161;-53
2024/04/22 02:49:23;;;;;;;7.10;3.07;;;;;;;;;;5376140;26;86276;-51
2024/04/22 02:51:48;;;;;;;7.50;3.27;;;;;;;;;;5377770;26;86371;-53
2024/04/22 02:54:13;;;;;;;3.53;3.17;;;;;;;;;;5374191;26;85881;-53
2024/04/22 02:56:39;;;;;;;3.33;2.23;;;;;;;;;;5384240;26;85098;-54
2024/04/22 02:59:04;;;;;;;3.47;2.53;;;;;;;;;;5384349;26;85791;-49
2024/04/22 03:01:32;;;;;;;5.23;3.23;;;;;;;;;;5378392;26;85465;-50
2024/04/22 03:03:57;;;;;;;6.43;2.60;;;;;;;;;;5375126;26;85195;-53
2024/04/22 03:06:23;;;;;;;5.60;3.30;;;;;;;;;;5379809;26;85542;-53
2024/04/22 03:08:49;;;;;;;4.23;2.57;;;;;;;;;;5380473;26;86289;-53
2024/04/22 03:11:14;;;;;;;7.17;3.47;;;;;;;;;;5372680;26;88553;-51
2024/04/22 03:13:39;;;;;;;4.93;3.13;;;;;;;;;;5380898;26;86307;-53
2024/04/22 03:16:05;;;;;;;9.67;3.20;;;;;;;;;;5380651;26;85962;-49
2024/04/22 03:18:30;;;;;;;4.00;3.50;;;;;;;;;;5381885;26;85079;-52
2024/04/22 03:20:55;;;;;;;7.17;3.47;;;;;;;;;;5375816;26;85338;-53
2024/04/22 03:23:21;;;;;;;6.53;3.67;;;;;;;;;;5379830;26;86013;-51
2024/04/22 03:25:46;;;;;;;7.30;3.30;;;;;;;;;;5374045;26;86416;-52
2024/04/22 03:28:11;;;;;;;7.43;2.50;;;;;;;;;;5377384;26;85555;-53
2024/04/22 03:30:36;;;;;;;5.37;2.80;;;;;;;;;;5380442;25;85301;-52
2024/04/22 03:33:01;;;;;;;3.27;2.67;;;;;;;;;;5380320;26;85362;-52
2024/04/22 03:35:27;;;;;;;4.83;2.80;;;;;;;;;;5373861;26;85764;-52
2024/04/22 03:37:53;;;;;;;4.60;2.90;;;;;;;;;;5376059;26;86253;-49
2024/04/22 03:40:18;;;;;;;4.47;2.28;;;;;;;;;;5384620;25;87612;-53
2024/04/22 03:42:43;;;;;;;6.20;2.33;;;;;;;;;;5375451;26;86759;-50
2024/04/22 03:45:09;;;;;;;4.37;2.47;;;;;;;;;;5373780;26;85976;-51
2024/04/22 03:50:18;;;;;;;6.97;2.80;;;;;;;;;;5367254;26;85572;-53
2024/04/22 03:52:43;;;;;;;3.13;2.10;;;;;;;;;;5381843;26;86753;-53
2024/04/22 03:55:09;;;;;;;4.50;2.57;;;;;;;;;;5382411;26;85908;-51
2024/04/22 03:57:34;;;;;;;5.03;2.40;;;;;;;;;;5385126;26;85136;-52
2024/04/22 03:59:59;;;;;;;6.63;2.37;;;;;;;;;;5374076;26;85792;-53
2024/04/22 04:02:24;;;;;;;5.70;2.23;;;;;;;;;;5370562;26;86372;-54
2024/04/22 04:04:49;;;;;;;2.67;2.03;;;;;;;;;;5378833;26;85384;-54
2024/04/22 04:07:15;;;;;;;4.57;3.07;;;;;;;;;;5384812;26;86765;-51
2024/04/22 04:09:40;;;;;;;5.17;2.17;;;;;;;;;;5377096;26;85571;-53
2024/04/22 04:12:05;;;;;;;8.00;3.30;;;;;;;;;;5383556;26;85224;-51
2024/04/22 04:14:31;;;;;;;3.10;1.97;;;;;;;;;;5375530;26;87999;-53
2024/04/22 04:16:56;;;;;;;6.77;2.03;;;;;;;;;;5382908;26;86405;-53
2024/04/22 04:19:21;;;;;;;3.20;2.60;;;;;;;;;;5377016;26;84397;-52
2024/04/22 04:21:46;;;;;;;4.60;1.77;;;;;;;;;;5382290;26;85674;-51
2024/04/22 04:24:13;;;;;;;3.67;1.83;;;;;;;;;;5378538;26;85183;-51
2024/04/22 04:26:38;;;;;;;1.52;1.13;;;;;;;;;;5370797;26;87072;-53
2024/04/22 04:29:04;;;;;;;2.50;1.30;;;;;;;;;;5370598;26;85504;-54
2024/04/22 04:31:29;;;;;;;6.60;1.40;;;;;;;;;;5381635;26;85863;-52
2024/04/22 04:33:54;;;;;;;2.40;1.83;;;;;;;;;;5369678;26;85896;-55
2024/04/22 04:36:19;;;;;;;3.60;1.63;;;;;;;;;;5374409;26;85118;-55
2024/04/22 04:38:45;;;;;;;2.87;1.90;;;;;;;;;;5379114;26;85105;-54
2024/04/22 04:41:10;;;;;;;2.80;1.60;;;;;;;;;;5381524;26;85661;-52
2024/04/22 04:43:35;;;;;;;2.60;0.93;;;;;;;;;;5377160;26;84423;-53
2024/04/22 04:46:00;;;;;;;3.75;1.80;;;;;;;;;;5376094;26;85724;-54
2024/04/22 04:48:26;;;;;;;1.97;1.10;;;;;;;;;;5385867;26;86121;-53
2024/04/22 04:50:51;;;;;;;2.93;1.50;;;;;;;;;;5381773;25;86358;-52
2024/04/22 04:53:17;;;;;;;4.00;1.70;;;;;;;;;;5376952;26;86825;-54
2024/04/22 04:55:44;;;;;;;3.13;1.40;;;;;;;;;;5376346;26;86812;-55
2024/04/22 04:58:10;;;;;;;5.18;1.27;;;;;;;;;;5390341;26;85231;-52
2024/04/22 05:00:35;;;;;;;1.97;1.30;;;;;;;;;;5380343;26;85948;-51
2024/04/22 05:03:00;;;;;;;1.53;0.83;;;;;;;;;;5384888;26;85100;-64
2024/04/22 05:05:26;;;;;;;2.13;0.90;;;;;;;;;;5367861;26;85751;-63
2024/04/22 05:07:52;;;;;;;2.67;1.50;;;;;;;;;;5383610;25;85015;-54
2024/04/22 05:10:17;;;;;;;1.90;0.80;;;;;;;;;;5379817;25;85386;-52
2024/04/22 05:12:43;;;;;;;1.07;0.97;;;;;;;;;;5378084;26;85179;-54
2024/04/22 05:15:08;;;;;;;5.00;1.00;;;;;;;;;;5382463;26;86242;-55
2024/04/22 05:17:33;;;;;;;13.50;1.40;;;;;;;;;;5377859;26;85550;-52
2024/04/22 05:19:59;;;;;;;2.80;1.30;;;;;;;;;;5374625;26;85482;-53
2024/04/22 05:22:24;;;;;;;0.80;0.80;;;;;;;;;;5379494;26;85637;-56
2024/04/22 05:24:49;;;;;;;1.03;0.87;;;;;;;;;;5367932;26;85654;-55
2024/04/22 05:27:15;;;;;;;2.87;0.97;;;;;;;;;;5376792;26;85852;-56
2024/04/22 05:29:40;;;;;;;0.60;0.60;;;;;;;;;;5375538;26;85468;-54
2024/04/22 05:32:05;;;;;;;2.00;1.17;;;;;;;;;;5371229;26;86724;-54
2024/04/22 05:37:15;;;;;;;2.08;0.82;;;;;;;;;;5373955;26;85350;-54
2024/04/22 05:39:42;;;;;;;1.00;0.90;;;;;;;;;;5374106;26;88562;-52
2024/04/22 05:42:07;;;;;;;1.90;0.77;;;;;;;;;;5381687;26;85595;-51
2024/04/22 05:44:32;;;;;;;0.80;0.70;;;;;;;;;;5379664;26;85686;-53
2024/04/22 05:46:57;;;;;;;0.97;0.80;;;;;;;;;;5382041;26;86388;-53
2024/04/22 05:49:25;;;;;;;2.53;1.10;;;;;;;;;;5376732;26;86228;-54
2024/04/22 05:51:50;;;;;;;3.20;0.93;;;;;;;;;;5373360;26;87665;-53
2024/04/22 05:54:15;;;;;;;4.50;1.00;;;;;;;;;;5377721;26;87259;-53
2024/04/22 05:56:42;;;;;;;0.60;0.60;;;;;;;;;;5368842;26;84713;-56
2024/04/22 05:59:09;;;;;;;1.73;1.20;;;;;;;;;;5391418;26;85506;-52
2024/04/22 06:01:34;;;;;;;0.85;0.73;;;;;;;;;;5381544;26;85648;-53
2024/04/22 06:04:00;;;;;;;0.90;0.70;;;;;;;;;;5382353;26;86569;-51
2024/04/22 06:06:25;;;;;;;2.00;1.27;;;;;;;;;;5378935;26;86372;-54
2024/04/22 06:08:50;;;;;;;0.40;0.40;;;;;;;;;;5380810;26;85614;-52
2024/04/22 06:11:15;;;;;;;0.73;0.70;;;;;;;;;;5378356;26;85316;-54
2024/04/22 06:13:40;;;;;;;3.10;1.17;;;;;;;;;;5379469;26;87608;-48
2024/04/22 06:16:06;;;;;;;0.93;0.80;;;;;;;;;;5373827;26;86224;-52
2024/04/22 06:18:31;;;;;;;1.93;0.90;;;;;;;;;;5380661;26;85482;-54
2024/04/22 06:20:56;;;;;;;0.80;0.70;;;;;;;;;;5381248;26;84938;-53
2024/04/22 06:23:21;;;;;;;0.80;0.80;;;;;;;;;;5374448;26;85036;-53
2024/04/22 06:25:47;;;;;;;0.60;0.60;;;;;;;;;;5379665;26;85319;-54
2024/04/22 06:28:12;;;;;;;9.23;0.70;;;;;;;;;;5372559;26;87473;-52
2024/04/22 06:30:37;;;;;;;1.17;0.97;;;;;;;;;;5377694;26;86320;-54
2024/04/22 06:33:03;;;;;;;1.70;1.00;;;;;;;;;;5384176;26;85667;-52
2024/04/22 06:35:28;;;;;;;1.70;1.08;;;;;;;;;;5379319;26;85730;-52
2024/04/22 06:37:53;;;;;;;4.17;0.50;;;;;;;;;;5381826;26;86003;-50
2024/04/22 06:40:19;;;;;;;1.23;0.63;;;;;;;;;;5380147;26;85379;-51
2024/04/22 06:42:44;;;;;;;2.70;0.70;;;;;;;;;;5375437;26;86017;-52
2024/04/22 06:45:09;;;;;;;1.03;0.93;;;;;;;;;;5379694;26;84429;-48
2024/04/22 06:47:34;;;;;;;1.20;0.80;;;;;;;;;;5384289;26;85108;-53
2024/04/22 06:50:00;;;;;;;1.60;0.90;;;;;;;;;;5377448;26;85566;-53
2024/04/22 06:52:25;;;;;;;0.47;0.47;;;;;;;;;;5368903;26;86934;-51
2024/04/22 06:54:50;;;;;;;1.53;1.20;;;;;;;;;;5387548;26;85234;-55
2024/04/22 06:57:17;;;;;;;0.90;0.80;;;;;;;;;;5378349;26;85306;-53
2024/04/22 06:59:43;;;;;;;0.68;0.68;;;;;;;;;;5379040;26;85757;-52
2024/04/22 07:02:08;;;;;;;1.10;0.60;;;;;;;;;;5377682;26;85623;-54
2024/04/22 07:04:34;;;;;;;1.60;0.90;;;;;;;;;;5376883;26;85070;-52
2024/04/22 07:06:59;;;;;;;0.43;0.43;;;;;;;;;;5391129;26;85753;-52
2024/04/22 07:09:24;;;;;;;2.08;0.80;;;;;;;;;;5376726;26;84503;-53
2024/04/22 07:11:50;;;;;;;2.10;0.82;;;;;;;;;;5372029;26;85590;-55
2024/04/22 07:14:19;;;;;;;1.60;0.80;;;;;;;;;;5385034;25;85901;-54
2024/04/22 07:16:51;;;;;;;1.07;0.63;;;;;;;;;;5379021;26;86325;-53
2024/04/22 07:19:16;;;;;;;1.23;0.93;;;;;;;;;;5375064;26;85176;-53
2024/04/22 07:21:42;;;;;;;11.70;0.80;;;;;;;;;;5389825;26;85472;-53
2024/04/22 07:24:07;;;;;;;0.93;0.77;;;;;;;;;;5381510;26;86009;-53
2024/04/22 07:26:32;;;;;;;0.83;0.50;;;;;;;;;;5368129;26;85832;-55
2024/04/22 07:28:57;;;;;;;0.90;0.70;;;;;;;;;;5377755;26;85068;-51
2024/04/22 07:31:23;;;;;;;0.50;0.37;;;;;;;;;;5380253;26;86853;-52
2024/04/22 07:33:48;;;;;;;2.50;0.53;;;;;;;;;;5377062;26;84397;-52
2024/04/22 07:36:33;;;;;;;1.00;0.63;;;;;;;;;;5376941;26;86776;-52
2024/04/22 07:38:59;;;;;;;0.63;0.60;;;;;;;;;;5369770;26;85654;-54
2024/04/22 07:41:25;;;;;;;0.70;0.60;;;;;;;;;;5375670;26;86505;-55
2024/04/22 07:43:50;;;;;;;0.38;0.38;;;;;;;;;;5372965;26;86254;-50
2024/04/22 07:46:15;;;;;;;0.50;0.50;;;;;;;;;;5380214;26;85693;-54
2024/04/22 07:48:41;;;;;;;0.60;0.60;;;;;;;;;;5377173;26;85626;-52
2024/04/22 07:51:06;;;;;;;1.60;0.50;;;;;;;;;;5383106;26;85216;-51
2024/04/22 07:53:31;;;;;;;4.95;0.55;;;;;;;;;;5377748;26;85552;-53
2024/04/22 07:55:57;;;;;;;1.10;0.57;;;;;;;;;;5375501;26;87383;-54
2024/04/22 07:58:22;;;;;;;1.20;0.70;;;;;;;;;;5380921;26;85245;-54
2024/04/22 08:00:47;;;;;;;0.80;0.45;;;;;;;;;;5376322;26;85144;-53
2024/04/22 08:03:13;;;;;;;1.92;1.10;;;;;;;;;;5381147;26;85698;-53
2024/04/22 08:05:38;;;;;;;1.08;0.77;;;;;;;;;;5371916;26;87697;-52
2024/04/22 08:08:05;;;;;;;3.07;0.87;;;;;;;;;;5377099;26;86348;-54
2024/04/22 08:10:30;;;;;;;0.55;0.55;;;;;;;;;;5389965;26;85711;-52
2024/04/22 08:12:56;;;;;;;0.40;0.30;;;;;;;;;;5377585;26;88605;-52
2024/04/22 08:15:21;;;;;;;0.40;0.40;;;;;;;;;;5377821;26;86048;-50
2024/04/22 08:17:46;;;;;;;0.50;0.40;;;;;;;;;;5378713;26;85332;-52
2024/04/22 08:20:12;;;;;;;0.80;0.70;;;;;;;;;;5380043;25;85971;-51
2024/04/22 08:22:37;;;;;;;0.77;0.50;;;;;;;;;;5380162;26;85675;-54
2024/04/22 08:25:03;;;;;;;0.53;0.53;;;;;;;;;;5381999;26;89267;-54
2024/04/22 08:27:29;;;;;;;4.38;0.65;;;;;;;;;;5388721;26;85281;-53
2024/04/22 08:29:54;;;;;;;4.13;0.63;;;;;;;;;;5377124;26;86577;-52
2024/04/22 08:32:19;;;;;;;0.53;0.47;;;;;;;;;;5379667;26;85867;-53
2024/04/22 08:34:45;;;;;;;1.20;0.80;;;;;;;;;;5374970;26;85610;-53
2024/04/22 08:37:10;;;;;;;0.80;0.40;;;;;;;;;;5387885;26;87103;-53
2024/04/22 08:39:35;;;;;;;0.73;0.50;;;;;;;;;;5378780;26;85401;-54
2024/04/22 08:42:08;;;;;;;0.40;0.30;;;;;;;;;;5375765;26;85571;-53
2024/04/22 08:44:33;;;;;;;3.97;0.60;;;;;;;;;;5376119;26;85587;-52
2024/04/22 08:46:58;;;;;;;0.50;0.50;;;;;;;;;;5377222;26;84844;-53
2024/04/22 08:49:24;;;;;;;2.80;0.67;;;;;;;;;;5379640;26;85194;-54
2024/04/22 08:51:55;;;;;;;1.10;0.50;;;;;;;;;;5375698;26;86487;-53
2024/04/22 08:54:21;;;;;;;0.30;0.30;;;;;;;;;;5377276;25;86351;-53
2024/04/22 08:56:47;;;;;;;1.20;0.50;;;;;;;;;;5383600;26;85742;-52
2024/04/22 08:59:12;;;;;;;0.90;0.50;;;;;;;;;;5380140;26;85732;-53
2024/04/22 09:01:38;;;;;;;0.50;0.50;;;;;;;;;;5377491;26;85675;-54
2024/04/22 09:04:03;;;;;;;1.10;0.63;;;;;;;;;;5377059;26;87108;-56
2024/04/22 09:06:28;;;;;;;0.70;0.53;;;;;;;;;;5381216;26;86247;-52
2024/04/22 09:08:54;;;;;;;0.97;0.60;;;;;;;;;;5376912;26;85595;-51
2024/04/22 09:11:20;;;;;;;1.17;0.82;;;;;;;;;;5381106;25;84517;-51
2024/04/22 09:13:45;;;;;;;2.47;0.63;;;;;;;;;;5376643;26;85481;-52
2024/04/22 09:16:14;;;;;;;4.70;0.40;;;;;;;;;;5378059;26;85768;-49
2024/04/22 09:18:40;;;;;;;0.17;0.17;;;;;;;;;;5380720;26;86621;-54
2024/04/22 09:21:08;;;;;;;0.57;0.40;;;;;;;;;;5376712;26;86544;-53
2024/04/22 09:23:34;;;;;;;0.70;0.60;;;;;;;;;;5378332;26;85323;-52
2024/04/22 09:25:59;;;;;;;1.47;0.47;;;;;;;;;;5382912;26;85399;-50
2024/04/22 09:28:26;;;;;;;4.00;0.40;;;;;;;;;;5382217;26;85288;-54
2024/04/22 09:30:53;;;;;;;0.17;0.17;;;;;;;;;;5381441;26;85253;-50
2024/04/22 09:33:21;;;;;;;0.40;0.40;;;;;;;;;;5371139;26;85325;-53
2024/04/22 09:35:46;;;;;;;0.32;0.30;;;;;;;;;;5380586;26;85452;-53
2024/04/22 09:38:13;;;;;;;0.80;0.30;;;;;;;;;;5387210;26;85457;-50
2024/04/22 09:40:39;;;;;;;1.40;0.40;;;;;;;;;;5377911;26;85348;-65
2024/04/22 09:43:05;;;;;;;0.90;0.80;;;;;;;;;;5381448;26;86651;-54
2024/04/22 09:45:31;;;;;;;2.38;0.38;;;;;;;;;;5375085;26;85199;-51
2024/04/22 09:47:57;;;;;;;1.08;0.50;;;;;;;;;;5382497;26;85540;-51
2024/04/22 09:50:24;;;;;;;0.40;0.40;;;;;;;;;;5380710;26;85855;-49
2024/04/22 09:52:50;;;;;;;1.13;0.65;;;;;;;;;;5378642;26;85427;-54
2024/04/22 09:55:16;;;;;;;0.80;0.35;;;;;;;;;;5380658;25;86755;-53
2024/04/22 09:57:41;;;;;;;0.40;0.40;;;;;;;;;;5378167;26;85738;-52
2024/04/22 10:00:07;;;;;;;5.30;0.60;;;;;;;;;;5385333;26;85377;-53
2024/04/22 10:02:32;;;;;;;0.35;0.32;;;;;;;;;;5377733;26;85231;-52
2024/04/22 10:04:58;;;;;;;0.60;0.50;;;;;;;;;;5378481;26;85124;-54
2024/04/22 10:07:23;;;;;;;0.47;0.40;;;;;;;;;;5386791;26;86199;-51
2024/04/22 10:09:52;;;;;;;0.73;0.33;;;;;;;;;;5388310;26;85396;-53
2024/04/22 10:12:25;;;;;;;0.30;0.30;;;;;;;;;;5379903;26;85314;-53
2024/04/22 10:14:50;;;;;;;0.40;0.40;;;;;;;;;;5381092;26;85780;-53
2024/04/22 10:17:17;;;;;;;0.40;0.33;;;;;;;;;;5381479;25;85678;-53
2024/04/22 10:19:42;;;;;;;0.40;0.40;;;;;;;;;;5388315;25;85137;-47
2024/04/22 10:22:07;;;;;;;0.80;0.50;;;;;;;;;;5382064;26;85589;-49
2024/04/22 10:24:36;;;;;;;1.50;0.63;;;;;;;;;;5377173;26;86829;-51
2024/04/22 10:27:09;;;;;;;0.40;0.25;;;;;;;;;;5379404;26;86228;-49
2024/04/22 10:29:34;;;;;;;0.55;0.35;;;;;;;;;;5389509;25;85021;-51
2024/04/22 10:31:59;;;;;;;1.27;0.60;;;;;;;;;;5373837;26;86112;-50
2024/04/22 10:34:25;;;;;;;0.60;0.50;;;;;;;;;;5375823;26;86378;-51
2024/04/22 10:36:53;;;;;;;1.47;0.40;;;;;;;;;;5378877;26;85215;-46
2024/04/22 10:39:19;;;;;;;0.52;0.47;;;;;;;;;;5378310;26;85621;-48
2024/04/22 10:41:44;;;;;;;0.30;0.30;;;;;;;;;;5380644;26;88052;-51
2024/04/22 10:44:10;;;;;;;0.23;0.23;;;;;;;;;;5384091;26;85659;-51
2024/04/22 10:46:36;;;;;;;0.23;0.23;;;;;;;;;;5379860;26;85175;-49
2024/04/22 10:49:01;;;;;;;0.80;0.52;;;;;;;;;;5374909;26;84746;-51
2024/04/22 10:51:26;;;;;;;1.20;0.50;;;;;;;;;;5381598;26;85730;-52
2024/04/22 10:53:54;;;;;;;0.40;0.30;;;;;;;;;;5380070;26;86999;-51
2024/04/22 10:56:19;;;;;;;1.93;0.50;;;;;;;;;;5382127;26;86969;-50
2024/04/22 10:58:45;;;;;;;0.60;0.30;;;;;;;;;;5376366;26;85197;-49
2024/04/22 11:01:11;;;;;;;0.25;0.25;;;;;;;;;;5374670;26;85580;-52
2024/04/22 11:03:36;;;;;;;0.50;0.40;;;;;;;;;;5382534;26;85298;-51
2024/04/22 11:06:05;;;;;;;0.47;0.40;;;;;;;;;;5383755;26;86049;-47
2024/04/22 11:08:30;;;;;;;0.52;0.43;;;;;;;;;;5380281;26;85136;-49
2024/04/22 11:10:57;;;;;;;0.67;0.67;;;;;;;;;;5381325;26;85702;-50
2024/04/22 11:13:23;;;;;;;2.40;0.70;;;;;;;;;;5382400;26;85626;-48
2024/04/22 11:15:48;;;;;;;2.20;0.50;;;;;;;;;;5382672;26;85862;-47
2024/04/22 11:18:16;;;;;;;0.67;0.40;;;;;;;;;;5379008;26;85246;-46
2024/04/22 11:20:41;;;;;;;0.45;0.38;;;;;;;;;;5379910;26;86228;-51
2024/04/22 11:23:07;;;;;;;0.20;0.20;;;;;;;;;;5384348;26;86523;-47
2024/04/22 11:25:32;;;;;;;0.10;0.10;;;;;;;;;;5376647;26;85085;-49
2024/04/22 11:27:57;;;;;;;0.90;0.30;;;;;;;;;;5375084;26;87164;-51
2024/04/22 11:30:23;;;;;;;0.53;0.40;;;;;;;;;;5392427;26;85517;-50
2024/04/22 11:32:49;;;;;;;0.70;0.40;;;;;;;;;;5380614;26;85205;-50
2024/04/22 11:35:14;;;;;;;0.80;0.30;;;;;;;;;;5375766;26;85170;-47
2024/04/22 11:37:39;;;;;;;2.20;0.40;;;;;;;;;;5376680;26;85142;-49
2024/04/22 11:40:07;;;;;;;0.52;0.40;;;;;;;;;;5382380;25;85105;-48
2024/04/22 11:42:33;;;;;;;0.40;0.38;;;;;;;;;;5375628;26;85671;-49
2024/04/22 11:44:58;;;;;;;0.37;0.30;;;;;;;;;;5382559;26;86979;-50
2024/04/22 11:47:26;;;;;;;0.30;0.30;;;;;;;;;;5389747;26;87312;-47
2024/04/22 11:49:53;;;;;;;0.30;0.30;;;;;;;;;;5380793;26;85200;-48
2024/04/22 11:52:18;;;;;;;3.10;0.45;;;;;;;;;;5379734;26;85687;-50
2024/04/22 11:54:44;;;;;;;0.70;0.43;;;;;;;;;;5383196;26;85363;-51
2024/04/22 11:57:09;;;;;;;0.43;0.20;;;;;;;;;;5378974;26;86272;-47
2024/04/22 11:59:34;;;;;;;0.30;0.23;;;;;;;;;;5379401;26;85428;-47
2024/04/22 12:02:00;;;;;;;0.30;0.30;;;;;;;;;;5385329;26;84710;-50
2024/04/22 12:04:25;;;;;;;0.80;0.50;;;;;;;;;;5376628;26;85460;-48
2024/04/22 12:06:50;;;;;;;0.40;0.40;;;;;;;;;;5388977;26;86123;-48
2024/04/22 12:09:15;;;;;;;0.47;0.40;;;;;;;;;;5378949;26;86588;-50
2024/04/22 12:11:41;;;;;;;0.20;0.20;;;;;;;;;;5379915;26;85647;-51
2024/04/22 12:14:06;;;;;;;0.30;0.20;;;;;;;;;;5387198;25;85616;-51
2024/04/22 12:16:31;;;;;;;0.70;0.30;;;;;;;;;;5376446;26;85337;-50
2024/04/22 12:18:56;;;;;;;0.30;0.23;;;;;;;;;;5381240;26;85304;-50
2024/04/22 12:21:21;;;;;;;0.10;0.10;;;;;;;;;;5377430;26;85774;-51
2024/04/22 12:23:47;;;;;;;0.40;0.30;;;;;;;;;;5374513;26;89881;-49
2024/04/22 12:26:12;;;;;;;0.90;0.10;;;;;;;;;;5373860;26;84983;-47
2024/04/22 12:28:37;;;;;;;0.40;0.40;;;;;;;;;;5378409;26;85026;-50
2024/04/22 12:31:04;;;;;;;0.40;0.20;;;;;;;;;;5376810;26;85312;-50
2024/04/22 12:33:29;;;;;;;0.17;0.17;;;;;;;;;;5379967;26;86906;-46
2024/04/22 12:35:54;;;;;;;0.25;0.25;;;;;;;;;;5369368;26;85595;-49
2024/04/22 12:38:19;;;;;;;0.20;0.13;;;;;;;;;;5375172;26;85870;-48
2024/04/22 12:40:45;;;;;;;0.20;0.20;;;;;;;;;;5373404;26;87143;-47
2024/04/22 12:43:10;;;;;;;1.00;0.20;;;;;;;;;;5380315;26;85173;-49
2024/04/22 12:45:35;;;;;;;0.13;0.13;;;;;;;;;;5379399;26;85182;-48
2024/04/22 12:50:46;;;;;;;0.20;0.20;;;;;;;;;;5372897;25;85026;-50
2024/04/22 12:53:12;;;;;;;0.47;0.10;;;;;;;;;;5380064;26;85581;-48
2024/04/22 12:55:37;;;;;;;0.05;0.05;;;;;;;;;;5372513;26;86323;-50
2024/04/22 12:58:03;;;;;;;0.15;0.10;;;;;;;;;;5379478;26;86361;-45
2024/04/22 13:00:28;;;;;;;0.20;0.20;;;;;;;;;;5375240;26;85472;-50
2024/04/22 13:02:54;;;;;;;0.10;0.10;;;;;;;;;;5375490;26;85150;-49
2024/04/22 13:05:20;;;;;;;0.80;0.20;;;;;;;;;;5373876;25;85738;-48
2024/04/22 13:07:45;;;;;;;1.90;0.17;;;;;;;;;;5378950;26;86165;-50
2024/04/22 13:10:11;;;;;;;0.30;0.30;;;;;;;;;;5373211;26;85601;-49
2024/04/22 13:12:36;;;;;;;0.90;0.30;;;;;;;;;;5380033;26;85131;-48
2024/04/22 13:15:01;;;;;;;8.07;1.80;;;;;;;;;;5390851;26;84665;-47
2024/04/22 13:17:26;;;;;;;0.70;0.47;;;;;;;;;;5381030;26;85512;-43
2024/04/22 13:19:52;;;;;;;0.50;0.40;;;;;;;;;;5372789;26;85220;-46
2024/04/22 13:22:17;;;;;;;0.70;0.50;;;;;;;;;;5377293;26;92614;-46
2024/04/22 13:24:42;;;;;;;0.50;0.40;;;;;;;;;;5387680;26;86024;-47
2024/04/22 13:27:07;;;;;;;0.30;0.30;;;;;;;;;;5385127;26;85718;-45
2024/04/22 13:29:33;;;;;;;0.45;0.35;;;;;;;;;;5374761;26;85882;-45
2024/04/22 13:31:59;;;;;;;0.15;0.15;;;;;;;;;;5375465;26;86632;-42
2024/04/22 13:34:24;;;;;;;2.83;0.57;;;;;;;;;;5383830;26;85057;-46
2024/04/22 13:36:49;;;;;;;0.90;0.50;;;;;;;;;;5374760;26;85718;-46
2024/04/22 13:39:15;;;;;;;0.97;0.40;;;;;;;;;;5379988;26;84705;-47
2024/04/22 13:41:40;;;;;;;6.67;0.87;;;;;;;;;;5376340;26;85618;-45
2024/04/22 13:44:06;;;;;;;0.10;0.10;;;;;;;;;;5385273;26;85552;-48
2024/04/22 13:46:31;;;;;;;11.80;0.50;;;;;;;;;;5379753;26;86482;-43
2024/04/22 13:48:56;;;;;;;1.90;0.60;;;;;;;;;;5375499;26;85628;-46
2024/04/22 13:51:21;;;;;;;1.10;0.40;;;;;;;;;;5386724;26;87839;-47
2024/04/22 13:53:47;;;;;;;0.70;0.50;;;;;;;;;;5381409;26;86192;-46
2024/04/22 13:56:12;;;;;;;0.20;0.20;;;;;;;;;;5376079;26;85095;-44
2024/04/22 13:58:37;;;;;;;9.00;0.90;;;;;;;;;;5373178;26;85889;-46
2024/04/22 14:01:03;;;;;;;2.30;0.73;;;;;;;;;;5383188;26;85634;-44
2024/04/22 14:03:28;;;;;;;0.70;0.23;;;;;;;;;;5375495;26;88363;-46
2024/04/22 14:05:53;;;;;;;0.55;0.43;;;;;;;;;;5380749;26;85123;-44
2024/04/22 14:08:18;;;;;;;0.73;0.70;;;;;;;;;;5385901;25;85409;-45
2024/04/22 14:10:44;;;;;;;10.20;0.43;;;;;;;;;;5386793;25;86137;-41
2024/04/22 14:13:10;;;;;;;0.80;0.70;;;;;;;;;;5372000;26;86050;-45
2024/04/22 14:15:35;;;;;;;0.98;0.60;;;;;;;;;;5379527;26;85653;-45
2024/04/22 14:18:01;;;;;;;0.23;0.20;;;;;;;;;;5385099;26;85368;-48
2024/04/22 14:20:26;;;;;;;0.77;0.30;;;;;;;;;;5390132;26;85744;-46
2024/04/22 14:22:51;;;;;;;0.20;0.20;;;;;;;;;;5384652;26;85408;-41
2024/04/22 14:25:16;;;;;;;0.17;0.10;;;;;;;;;;5384136;26;85614;-44
2024/04/22 14:27:42;;;;;;;1.10;0.50;;;;;;;;;;5386842;26;84909;-44
2024/04/22 14:30:09;;;;;;;0.55;0.25;;;;;;;;;;5389432;26;86168;-49
2024/04/22 14:32:34;;;;;;;1.52;0.50;;;;;;;;;;5379603;26;85296;-45
2024/04/22 14:35:01;;;;;;;1.00;0.30;;;;;;;;;;5388933;26;86681;-43
2024/04/22 14:37:26;;;;;;;1.20;0.57;;;;;;;;;;5370195;26;85303;-45
2024/04/22 14:39:51;;;;;;;0.33;0.33;;;;;;;;;;5385981;25;85179;-44
2024/04/22 14:42:16;;;;;;;0.30;0.30;;;;;;;;;;5371008;26;85373;-44